| time (UTC) | temp F | wind direction | speed knots | gust knots | rain 1hr in | rain 24hr in | rain mn in | humidity % | barometer mb |
| 20260505153016 | 31 | 317 | 2.6 | 8.7 | 0.01 | 0.14 | 0.03 | 95 | 1015.3 |
| 20260505151521 | 31 | 300 | 3.5 | 9.6 | 0.00 | 0.13 | 0.02 | 95 | 1015.4 |
| 20260505124505 | 34 | 329 | 4.3 | 8.7 | 0.00 | 0.13 | 0.02 | 93 | 1014.2 |
| 20260505123011 | 36 | 309 | 3.5 | 9.6 | 0.00 | 0.13 | 0.02 | 93 | 1014.1 |
| 20260505121526 | 37 | 318 | 4.3 | 8.7 | 0.00 | 0.13 | 0.02 | 93 | 1013.8 |
| 20260505120013 | 38 | 304 | 2.6 | 7.0 | 0.00 | 0.13 | 0.02 | 93 | 1014.0 |
| 20260505114516 | 39 | 286 | 2.6 | 7.8 | 0.00 | 0.13 | 0.02 | 93 | 1014.0 |
| 20260505113011 | 39 | 297 | 0.9 | 3.5 | 0.00 | 0.13 | 0.02 | 94 | 1013.8 |
| 20260505111512 | 39 | 217 | 0.9 | 6.1 | 0.00 | 0.13 | 0.02 | 94 | 1013.7 |
| 20260505101509 | 39 | 172 | 1.7 | 5.2 | 0.00 | 0.13 | 0.02 | 94 | 1013.3 |
| 20260505100026 | 39 | 166 | 2.6 | 5.2 | 0.00 | 0.13 | 0.02 | 94 | 1013.1 |
| 20260505094520 | 40 | 154 | 4.3 | 6.1 | 0.00 | 0.13 | 0.02 | 94 | 1013.1 |
| 20260505093029 | 39 | 198 | 1.7 | 5.2 | 0.00 | 0.13 | 0.02 | 94 | 1013.1 |
| 20260505091527 | 39 | 178 | 2.6 | 4.3 | 0.00 | 0.13 | 0.02 | 93 | 1013.3 |
| 20260505090008 | 39 | 149 | 0.0 | 1.7 | 0.00 | 0.13 | 0.02 | 93 | 1013.2 |
| 20260505084521 | 39 | 144 | 0.0 | 3.5 | 0.00 | 0.13 | 0.02 | 93 | 1013.3 |
| 20260505083032 | 40 | 70 | 0.0 | 1.7 | 0.00 | 0.13 | 0.02 | 93 | 1013.9 |
| 20260505081523 | 40 | 319 | 0.0 | 1.7 | 0.01 | 0.13 | 0.02 | 93 | 1014.2 |
| 20260505080034 | 40 | 319 | 0.0 | 1.7 | 0.01 | 0.13 | 0.02 | 93 | 1014.2 |
| 20260505074513 | 40 | 300 | 0.0 | 2.6 | 0.01 | 0.13 | 0.02 | 93 | 1014.6 |
| 20260505073019 | 40 | 314 | 1.7 | 3.5 | 0.01 | 0.13 | 0.02 | 93 | 1014.7 |
| 20260505071534 | 40 | 318 | 0.9 | 2.6 | 0.01 | 0.12 | 0.01 | 93 | 1014.6 |
| 20260505070006 | 40 | 289 | 0.0 | 1.7 | 0.01 | 0.12 | 0.01 | 93 | 1014.5 |
| 20260505064509 | 40 | 307 | 0.9 | 1.7 | 0.02 | 0.12 | 0.01 | 93 | 1014.8 |
| 20260505060022 | 40 | 295 | 0.0 | 1.7 | 0.01 | 0.11 | 0.00 | 92 | 1015.0 |
| 20260505053013 | 40 | 319 | 0.0 | 4.3 | 0.00 | 0.10 | 0.10 | 92 | 1015.0 |
| 20260505051532 | 40 | 334 | 0.9 | 3.5 | 0.00 | 0.10 | 0.10 | 92 | 1015.0 |
| 20260505040022 | 41 | 191 | 0.0 | 1.7 | 0.04 | 0.10 | 0.10 | 89 | 1014.5 |
| 20260505034525 | 42 | 265 | 0.0 | 3.5 | 0.07 | 0.10 | 0.10 | 90 | 1014.5 |
| 20260505033025 | 42 | 324 | 0.0 | 4.3 | 0.07 | 0.09 | 0.09 | 89 | 1014.8 |
| 20260505031524 | 42 | 320 | 0.9 | 2.6 | 0.06 | 0.08 | 0.08 | 88 | 1014.8 |
| 20260505030020 | 42 | 39 | 0.9 | 1.7 | 0.04 | 0.06 | 0.06 | 88 | 1014.5 |
| 20260505024523 | 43 | 309 | 1.7 | 3.5 | 0.01 | 0.03 | 0.03 | 86 | 1014.7 |
| 20260505023027 | 43 | 11 | 0.9 | 1.7 | 0.00 | 0.02 | 0.02 | 86 | 1014.4 |
| 20260505021527 | 43 | 319 | 0.0 | 0.0 | 0.02 | 0.02 | 0.02 | 84 | 1014.3 |
| 20260505020016 | 44 | 291 | 0.9 | 2.6 | 0.02 | 0.02 | 0.02 | 81 | 1014.3 |
| 20260505014523 | 44 | 306 | 0.9 | 3.5 | 0.02 | 0.02 | 0.02 | 79 | 1014.2 |
| 20260505013025 | 46 | 280 | 2.6 | 12.2 | 0.02 | 0.02 | 0.02 | 74 | 1014.2 |
| 20260505011528 | 48 | 320 | 2.6 | 9.6 | 0.00 | 0.00 | 0.00 | 65 | 1014.2 |
| 20260505010016 | 49 | 259 | 3.5 | 9.6 | 0.00 | 0.00 | 0.00 | 53 | 1013.9 |
| 20260505004520 | 50 | 308 | 5.2 | 8.7 | 0.00 | 0.00 | 0.00 | 51 | 1013.6 |
| 20260505003003 | 50 | 301 | 5.2 | 13.0 | 0.00 | 0.00 | 0.00 | 51 | 1013.1 |
| 20260505001508 | 51 | 305 | 3.5 | 10.4 | 0.00 | 0.00 | 0.00 | 48 | 1013.0 |
| 20260505000013 | 52 | 70 | 4.3 | 12.2 | 0.00 | 0.00 | 0.00 | 48 | 1013.0 |
| 20260504234515 | 55 | 305 | 2.6 | 5.2 | 0.00 | 0.00 | 0.00 | 40 | 1012.8 |
| 20260504231505 | 55 | 97 | 2.6 | 5.2 | 0.00 | 0.00 | 0.00 | 39 | 1012.7 |
| 20260504230011 | 55 | 325 | 0.9 | 7.8 | 0.00 | 0.00 | 0.00 | 37 | 1012.4 |
| 20260504223020 | 57 | 105 | 1.7 | 18.2 | 0.00 | 0.00 | 0.00 | 36 | 1012.8 |
| 20260504214519 | 63 | 269 | 0.9 | 7.8 | 0.00 | 0.00 | 0.00 | 24 | 1011.7 |
| 20260504213017 | 66 | 313 | 2.6 | 10.4 | 0.00 | 0.00 | 0.00 | 25 | 1011.7 |
| 20260504210011 | 65 | 303 | 2.6 | 11.3 | 0.00 | 0.00 | 0.00 | 28 | 1011.8 |
| 20260504204513 | 61 | 310 | 2.6 | 12.2 | 0.00 | 0.00 | 0.00 | 29 | 1012.0 |
| 20260504203018 | 63 | 296 | 6.1 | 11.3 | 0.00 | 0.00 | 0.00 | 27 | 1012.3 |
| 20260504200022 | 63 | 352 | 6.1 | 10.4 | 0.00 | 0.00 | 0.00 | 25 | 1012.3 |
| 20260504194512 | 62 | 35 | 2.6 | 10.4 | 0.00 | 0.00 | 0.00 | 23 | 1012.3 |
| 20260504193016 | 63 | 290 | 3.5 | 7.0 | 0.00 | 0.00 | 0.00 | 20 | 1012.4 |
| 20260504191521 | 64 | 219 | 1.7 | 10.4 | 0.00 | 0.00 | 0.00 | 19 | 1012.4 |
| 20260504190006 | 65 | 210 | 3.5 | 7.8 | 0.00 | 0.00 | 0.00 | 20 | 1012.4 |
| 20260504184513 | 62 | 138 | 1.7 | 5.2 | 0.00 | 0.00 | 0.00 | 21 | 1012.7 |